Time;durP1;ratioP1;P1;durP2;ratioP2;P2;SDS_P1;SDS_P2;PMS_P1;PMS_P2;Temp;Humidity;BMP_temperature;BMP_pressure;BME280_temperature;BME280_humidity;BME280_pressure;Samples;Min_cycle;Max_cycle;Signal;HPM_P1;HPM_P2
2023/01/21 00:00:25;;;;;;;11.48;10.57;;;;;;;4.26;74.69;94305.66;5116560;28;20207;-67
2023/01/21 00:02:53;;;;;;;11.38;10.40;;;;;;;4.24;74.51;94301.63;5117729;28;20191;-67
2023/01/21 00:05:19;;;;;;;13.00;12.00;;;;;;;4.23;75.19;94310.97;5116871;28;20203;-67
2023/01/21 00:07:46;;;;;;;12.40;11.40;;;;;;;4.23;75.37;94311.75;5116770;28;20210;-67
2023/01/21 00:10:13;;;;;;;12.35;11.35;;;;;;;4.21;75.17;94314.03;5116116;28;20207;-67
2023/01/21 00:12:40;;;;;;;12.27;11.27;;;;;;;4.23;75.32;94316.44;5117277;28;20199;-67
2023/01/21 00:15:07;;;;;;;12.80;11.80;;;;;;;4.17;75.15;94318.53;5117367;28;20203;-67
2023/01/21 00:17:35;;;;;;;12.07;11.18;;;;;;;3.99;75.81;94327.94;5116521;28;20207;-67
2023/01/21 00:20:03;;;;;;;11.55;10.65;;;;;;;4.04;75.84;94320.38;5115482;28;20608;-67
2023/01/21 00:22:30;;;;;;;11.57;10.75;;;;;;;4.09;75.50;94316.66;5116305;28;20207;-67
2023/01/21 00:24:57;;;;;;;11.20;10.40;;;;;;;4.06;75.51;94314.59;5117074;28;20188;-67
2023/01/21 00:27:24;;;;;;;11.50;10.60;;;;;;;4.06;76.00;94309.13;5116618;28;20192;-67
2023/01/21 00:29:51;;;;;;;11.10;10.30;;;;;;;4.07;75.42;94325.19;5117021;28;20207;-67
2023/01/21 00:32:18;;;;;;;10.90;10.02;;;;;;;4.04;75.31;94325.84;5115443;28;20199;-67
2023/01/21 00:34:45;;;;;;;11.55;10.65;;;;;;;4.10;75.81;94313.63;5115886;28;20199;-67
2023/01/21 00:37:13;;;;;;;11.70;10.55;;;;;;;3.99;75.48;94319.75;5116973;28;20200;-66
2023/01/21 00:39:41;;;;;;;11.98;11.07;;;;;;;4.02;75.51;94306.25;5116789;28;20190;-67
2023/01/21 00:42:10;;;;;;;11.43;10.63;;;;;;;3.96;75.28;94299.41;5115732;28;20287;-67
2023/01/21 00:44:36;;;;;;;11.30;10.40;;;;;;;3.94;75.52;94314.50;5116316;28;20644;-67
2023/01/21 00:47:03;;;;;;;11.25;10.35;;;;;;;3.92;75.23;94319.47;5116179;28;20224;-67
2023/01/21 00:49:30;;;;;;;10.25;9.45;;;;;;;3.93;75.14;94318.38;5098691;28;20241;-67
2023/01/21 00:51:57;;;;;;;10.63;9.82;;;;;;;3.98;75.07;94304.53;5115598;28;20200;-67
2023/01/21 00:54:25;;;;;;;11.00;10.20;;;;;;;3.94;74.59;94309.06;5115563;28;20196;-67
2023/01/21 00:56:52;;;;;;;9.93;9.23;;;;;;;3.91;74.75;94318.69;5115111;28;20231;-67
2023/01/21 00:59:19;;;;;;;9.77;9.05;;;;;;;3.96;74.30;94323.16;5116478;28;20175;-67
2023/01/21 01:01:45;;;;;;;9.50;8.82;;;;;;;3.86;74.57;94318.88;5116098;27;20168;-67
2023/01/21 01:04:13;;;;;;;9.88;9.07;;;;;;;3.91;74.64;94318.69;5115516;28;20188;-67
2023/01/21 01:06:40;;;;;;;9.45;8.75;;;;;;;3.89;74.63;94322.88;5115930;28;20211;-67
2023/01/21 01:09:07;;;;;;;10.20;9.50;;;;;;;3.86;74.67;94319.69;5116222;28;20184;-67
2023/01/21 01:11:35;;;;;;;9.68;8.98;;;;;;;3.94;74.94;94320.75;5116167;28;20562;-67
2023/01/21 01:14:01;;;;;;;9.93;9.23;;;;;;;3.87;74.44;94325.94;5115853;28;20606;-67
2023/01/21 01:16:28;;;;;;;10.07;9.27;;;;;;;3.80;74.86;94306.53;5115862;28;20199;-67
2023/01/21 01:18:55;;;;;;;10.68;9.88;;;;;;;3.77;75.37;94305.25;5116093;28;20241;-67
2023/01/21 01:21:22;;;;;;;10.60;9.80;;;;;;;3.81;75.43;94335.41;5115203;28;20201;-67
2023/01/21 01:23:52;;;;;;;10.98;10.07;;;;;;;3.78;75.17;94325.19;5115004;28;20208;-67
2023/01/21 01:26:19;;;;;;;10.63;9.82;;;;;;;3.79;75.66;94324.06;5115049;28;20227;-67
2023/01/21 01:28:48;;;;;;;10.70;9.90;;;;;;;3.81;75.38;94302.69;5114930;28;20191;-67
2023/01/21 01:31:16;;;;;;;11.00;10.13;;;;;;;3.83;75.75;94305.91;5114000;28;20555;-67
2023/01/21 01:33:43;;;;;;;10.82;10.02;;;;;;;3.87;75.21;94298.66;5115320;28;20192;-67
2023/01/21 01:36:13;;;;;;;10.68;9.75;;;;;;;3.84;75.64;94302.03;5114923;28;20199;-67
2023/01/21 01:38:39;;;;;;;10.32;9.60;;;;;;;3.82;75.51;94294.19;5115690;28;20188;-67
2023/01/21 01:41:06;;;;;;;10.30;9.60;;;;;;;3.82;75.47;94288.72;5114902;28;20191;-67
2023/01/21 01:43:57;;;;;;;10.38;9.57;;;;;;;3.88;75.71;94285.81;5115802;28;20244;-67
2023/01/21 01:46:25;;;;;;;9.90;9.20;;;;;;;3.89;75.22;94280.03;5111386;28;20216;-67
2023/01/21 01:48:55;;;;;;;10.70;9.90;;;;;;;3.91;75.73;94279.69;5114470;28;20198;-67
2023/01/21 01:51:25;;;;;;;10.02;9.27;;;;;;;3.91;75.29;94261.38;5114616;28;20218;-67
2023/01/21 01:53:52;;;;;;;10.00;9.20;;;;;;;3.83;75.57;94271.22;5115618;28;20192;-67
2023/01/21 01:56:19;;;;;;;10.20;9.48;;;;;;;3.78;75.76;94255.06;5115449;28;20232;-67
2023/01/21 01:58:46;;;;;;;10.13;9.43;;;;;;;3.83;75.55;94256.78;5115378;28;20180;-67
2023/01/21 02:01:14;;;;;;;9.55;8.85;;;;;;;3.85;75.23;94254.53;5115661;28;20202;-67
2023/01/21 02:03:45;;;;;;;10.48;9.57;;;;;;;3.88;75.74;94253.88;5115074;28;20583;-67
2023/01/21 02:06:12;;;;;;;10.48;9.65;;;;;;;3.84;75.41;94252.94;5115382;28;20176;-67
2023/01/21 02:08:39;;;;;;;10.15;9.35;;;;;;;3.85;75.46;94266.25;5114584;28;20202;-67
2023/01/21 02:11:17;;;;;;;9.38;8.63;;;;;;;3.87;75.68;94249.53;5114347;28;20207;-67
2023/01/21 02:13:46;;;;;;;10.35;9.55;;;;;;;3.84;74.98;94247.47;5115403;28;20179;-67
2023/01/21 02:17:00;;;;;;;10.05;9.25;;;;;;;3.80;75.11;94250.06;5114558;28;20195;-67
2023/01/21 02:19:57;;;;;;;9.90;9.15;;;;;;;3.73;76.34;94238.06;5053115;28;20194;-67
2023/01/21 02:22:28;;;;;;;10.27;9.48;;;;;;;3.70;76.12;94236.78;5086482;28;20665;-67
2023/01/21 02:25:28;;;;;;;9.85;8.95;;;;;;;3.80;75.96;94228.25;5114632;28;20196;-67
2023/01/21 02:28:13;;;;;;;9.40;8.68;;;;;;;3.77;76.03;94226.16;5115297;28;20199;-67
2023/01/21 02:30:55;;;;;;;9.00;8.30;;;;;;;3.64;76.12;94227.22;5115136;28;20216;-67
2023/01/21 02:33:43;;;;;;;9.05;8.35;;;;;;;3.58;75.79;94220.34;5115261;28;20187;-67
2023/01/21 02:36:22;;;;;;;8.30;7.70;;;;;;;3.66;76.07;94210.53;5115110;28;20207;-67
2023/01/21 02:38:53;;;;;;;8.30;7.70;;;;;;;3.73;75.47;94211.59;5115234;28;20191;-67
2023/01/21 02:41:28;;;;;;;8.55;7.95;;;;;;;3.78;75.47;94197.00;5115489;28;20195;-67
2023/01/21 02:44:02;;;;;;;9.43;8.75;;;;;;;3.78;75.15;94214.16;5118997;27;20195;-67
2023/01/21 02:46:33;;;;;;;8.85;8.25;;;;;;;3.74;75.13;94196.84;5118897;28;20243;-67
2023/01/21 02:49:06;;;;;;;9.23;8.52;;;;;;;3.71;75.65;94213.06;5118873;28;20184;-66
2023/01/21 02:51:33;;;;;;;8.55;7.88;;;;;;;3.70;75.73;94217.69;5118357;28;20207;-66
2023/01/21 02:54:00;;;;;;;8.98;8.27;;;;;;;3.62;75.73;94208.44;5117896;28;20225;-67
2023/01/21 02:56:27;;;;;;;7.70;7.20;;;;;;;3.61;75.87;94215.03;5118251;28;20243;-67
2023/01/21 02:59:03;;;;;;;8.23;7.63;;;;;;;3.57;75.90;94205.94;5118690;28;20195;-66
2023/01/21 03:01:40;;;;;;;8.23;7.63;;;;;;;3.62;76.60;94203.00;5118605;28;20187;-66
2023/01/21 03:04:40;;;;;;;8.65;8.05;;;;;;;3.69;76.25;94188.84;5117753;28;20198;-66
2023/01/21 03:07:13;;;;;;;8.55;7.95;;;;;;;3.74;76.08;94185.13;5118445;28;20195;-67
2023/01/21 03:09:40;;;;;;;8.63;8.00;;;;;;;3.69;75.88;94190.78;5118397;28;20180;-66
2023/01/21 03:12:28;;;;;;;9.20;8.50;;;;;;;3.69;75.96;94182.59;5117145;28;20195;-67
2023/01/21 03:17:50;;;;;;;8.93;8.23;;;;;;;3.69;76.12;94190.78;5117931;28;20571;-67
2023/01/21 03:20:20;;;;;;;8.55;7.95;;;;;;;3.67;76.00;94176.66;5117315;28;20203;-67
2023/01/21 03:22:48;;;;;;;8.68;8.07;;;;;;;3.64;76.27;94169.97;5118122;28;20203;-67
2023/01/21 03:25:17;;;;;;;8.07;7.50;;;;;;;3.66;76.07;94172.34;5117282;28;20192;-67
2023/01/21 03:27:46;;;;;;;8.32;7.68;;;;;;;3.70;76.13;94156.91;5117858;27;20195;-67
2023/01/21 03:30:15;;;;;;;7.90;7.30;;;;;;;3.72;76.41;94163.63;5117924;28;20199;-67
2023/01/21 03:32:43;;;;;;;7.78;7.18;;;;;;;3.69;76.20;94160.78;5116812;28;20230;-67
2023/01/21 03:35:13;;;;;;;7.95;7.45;;;;;;;3.65;76.18;94163.38;5117636;28;20275;-67
2023/01/21 03:37:45;;;;;;;8.07;7.55;;;;;;;3.62;76.24;94142.22;5116744;28;20328;-66
2023/01/21 03:40:17;;;;;;;8.60;7.90;;;;;;;3.65;75.88;94147.00;5117628;28;20227;-67
2023/01/21 03:42:46;;;;;;;8.98;8.27;;;;;;;3.66;75.84;94145.06;5116887;28;20207;-67
2023/01/21 03:45:13;;;;;;;9.07;8.38;;;;;;;3.66;75.90;94143.13;5116663;28;20191;-67
2023/01/21 03:47:44;;;;;;;8.63;8.00;;;;;;;3.69;75.61;94142.47;5117910;28;20183;-67
2023/01/21 03:50:14;;;;;;;8.68;7.97;;;;;;;3.68;75.84;94138.16;5117666;28;20207;-67
2023/01/21 03:52:43;;;;;;;7.70;7.10;;;;;;;3.62;75.50;94134.81;5116117;28;20184;-67
2023/01/21 03:55:14;;;;;;;9.48;8.77;;;;;;;3.58;75.29;94142.06;5117013;28;20194;-67
2023/01/21 03:57:41;;;;;;;8.52;7.93;;;;;;;3.61;75.31;94144.13;5116284;28;20228;-67
2023/01/21 04:00:09;;;;;;;8.25;7.63;;;;;;;3.57;75.43;94137.75;5116392;28;20256;-67
2023/01/21 04:02:35;;;;;;;8.07;7.47;;;;;;;3.54;75.37;94143.88;5117515;28;20252;-67
2023/01/21 04:05:02;;;;;;;8.45;7.85;;;;;;;3.51;75.90;94162.81;5116766;28;20203;-67
2023/01/21 04:07:29;;;;;;;7.97;7.40;;;;;;;3.47;75.83;94146.31;5117498;28;20188;-67
2023/01/21 04:09:57;;;;;;;8.07;7.47;;;;;;;3.47;76.00;94143.59;5116612;28;20256;-67
2023/01/21 04:12:25;;;;;;;7.70;7.10;;;;;;;3.44;76.20;94146.19;5116120;28;20699;-67
2023/01/21 04:14:52;;;;;;;8.00;7.35;;;;;;;3.37;76.15;94150.22;5117155;28;20192;-67
2023/01/21 04:17:19;;;;;;;8.70;8.10;;;;;;;3.33;76.43;94132.94;5116958;28;20190;-67
2023/01/21 04:19:45;;;;;;;8.82;8.20;;;;;;;3.37;76.27;94109.31;5116011;28;20203;-67
2023/01/21 04:22:12;;;;;;;10.88;10.02;;;;;;;3.42;76.30;94113.00;5116033;28;20566;-67
2023/01/21 04:24:39;;;;;;;10.30;9.43;;;;;;;3.41;76.08;94133.19;5116852;28;20199;-67
2023/01/21 04:27:07;;;;;;;10.00;9.18;;;;;;;3.36;76.72;94136.94;5115535;28;20195;-66
2023/01/21 04:29:34;;;;;;;10.00;9.20;;;;;;;3.38;77.22;94130.03;5115906;28;20295;-67
2023/01/21 04:32:00;;;;;;;9.20;8.50;;;;;;;3.40;76.64;94124.22;5116762;28;20276;-67
2023/01/21 04:34:27;;;;;;;8.93;8.23;;;;;;;3.39;76.03;94128.09;5116734;28;20256;-67
2023/01/21 04:36:54;;;;;;;8.68;8.07;;;;;;;3.34;76.43;94152.78;5116821;28;20199;-67
2023/01/21 04:39:21;;;;;;;8.98;8.18;;;;;;;3.30;76.57;94154.59;5116501;28;20595;-67
2023/01/21 04:41:47;;;;;;;8.45;7.85;;;;;;;3.32;77.03;94165.97;5116696;28;20188;-67
2023/01/21 04:44:15;;;;;;;9.00;8.30;;;;;;;3.34;76.61;94177.34;5116636;28;20211;-66
2023/01/21 04:46:42;;;;;;;8.43;7.82;;;;;;;3.30;76.60;94171.75;5116260;28;20180;-67
2023/01/21 04:49:09;;;;;;;8.90;8.30;;;;;;;3.31;77.19;94181.53;5116774;28;20184;-66
2023/01/21 04:51:36;;;;;;;8.65;7.95;;;;;;;3.30;76.62;94181.84;5115325;28;20246;-67
2023/01/21 04:54:02;;;;;;;8.70;8.10;;;;;;;3.30;76.31;94169.00;5116598;28;20202;-67
2023/01/21 04:56:29;;;;;;;8.73;8.13;;;;;;;3.35;76.75;94170.78;5114941;28;20238;-67
2023/01/21 04:58:56;;;;;;;8.90;8.20;;;;;;;3.36;77.33;94162.25;5116549;27;20187;-67
2023/01/21 05:01:24;;;;;;;10.15;9.35;;;;;;;3.38;76.76;94172.84;5115184;28;20191;-67
2023/01/21 05:03:51;;;;;;;12.20;11.10;;;;;;;3.42;76.48;94190.13;5115404;28;20202;-67
2023/01/21 05:06:18;;;;;;;13.95;11.95;;;;;;;3.41;76.55;94195.91;5114951;28;20200;-66
2023/01/21 05:08:44;;;;;;;13.02;11.57;;;;;;;3.42;76.51;94184.69;5115320;28;20184;-67
2023/01/21 05:11:12;;;;;;;15.73;13.43;;;;;;;3.44;76.80;94192.53;5116146;28;20219;-67
2023/01/21 05:13:39;;;;;;;21.13;16.45;;;;;;;3.45;76.97;94194.09;5115255;28;20600;-67
2023/01/21 05:16:08;;;;;;;19.40;14.90;;;;;;;3.40;76.38;94197.84;5115358;28;20204;-67
2023/01/21 05:18:37;;;;;;;14.18;12.77;;;;;;;3.38;76.36;94198.19;5114989;28;20200;-67
2023/01/21 05:21:04;;;;;;;11.85;10.65;;;;;;;3.40;76.82;94194.31;5115957;28;20504;-67
2023/01/21 05:23:31;;;;;;;11.55;10.50;;;;;;;3.33;76.66;94198.34;5115098;28;20556;-67
2023/01/21 05:25:58;;;;;;;11.07;10.13;;;;;;;3.31;77.17;94197.88;5115217;28;20188;-66
2023/01/21 05:28:25;;;;;;;11.95;10.85;;;;;;;3.27;77.15;94202.41;5115476;28;20199;-65
2023/01/21 05:30:51;;;;;;;12.63;11.43;;;;;;;3.26;77.20;94200.78;5115269;28;20219;-65
2023/01/21 05:33:22;;;;;;;10.70;10.00;;;;;;;3.29;77.37;94218.41;5116067;28;20187;-65
2023/01/21 05:35:51;;;;;;;10.98;10.07;;;;;;;3.29;77.02;94216.47;5115853;28;20199;-65
2023/01/21 05:38:17;;;;;;;11.32;10.45;;;;;;;3.26;76.55;94211.69;5116148;28;20684;-65
2023/01/21 05:40:44;;;;;;;11.18;10.27;;;;;;;3.23;77.27;94217.81;5116134;28;20199;-70
2023/01/21 05:43:11;;;;;;;10.35;9.55;;;;;;;3.20;76.88;94207.56;5115434;28;20557;-69
2023/01/21 05:45:38;;;;;;;9.90;9.20;;;;;;;3.17;77.53;94212.88;5114707;28;20218;-70
2023/01/21 05:48:05;;;;;;;10.05;9.35;;;;;;;3.19;76.82;94216.84;5115254;28;20200;-67
2023/01/21 05:50:32;;;;;;;11.05;10.25;;;;;;;3.12;76.67;94236.44;5115653;28;20215;-67
2023/01/21 05:53:00;;;;;;;11.85;10.85;;;;;;;3.05;76.96;94236.16;5115532;28;20211;-67
2023/01/21 05:55:27;;;;;;;11.43;10.52;;;;;;;3.03;76.72;94222.03;5115190;28;20219;-67
2023/01/21 05:57:54;;;;;;;11.93;11.02;;;;;;;3.02;77.01;94216.94;5114649;28;20238;-66
2023/01/21 06:00:21;;;;;;;11.98;11.07;;;;;;;2.98;76.57;94214.06;5114513;28;20269;-67
2023/01/21 06:02:48;;;;;;;11.82;10.93;;;;;;;2.93;77.51;94213.41;5115409;28;20195;-67
2023/01/21 06:05:15;;;;;;;12.43;11.48;;;;;;;2.90;77.56;94214.84;5114662;28;20211;-66
2023/01/21 06:07:42;;;;;;;12.30;11.40;;;;;;;2.80;77.95;94224.19;5114961;28;20195;-67
2023/01/21 06:10:11;;;;;;;12.30;11.30;;;;;;;2.75;78.09;94218.09;5114892;28;20256;-67
2023/01/21 06:12:38;;;;;;;12.93;11.93;;;;;;;2.73;78.49;94210.28;5114637;28;20212;-67
2023/01/21 06:15:06;;;;;;;13.23;12.18;;;;;;;2.77;78.33;94215.88;5114475;28;20192;-67
2023/01/21 06:17:32;;;;;;;13.60;12.45;;;;;;;2.82;78.27;94227.38;5116733;28;20245;-67
2023/01/21 06:19:59;;;;;;;13.35;12.27;;;;;;;2.81;78.58;94227.72;5119021;28;20204;-67
2023/01/21 06:22:26;;;;;;;14.15;12.75;;;;;;;2.83;78.97;94222.72;5118669;28;20191;-67
2023/01/21 06:24:53;;;;;;;14.38;13.07;;;;;;;2.87;78.81;94218.25;5119522;28;20175;-67
2023/01/21 06:27:23;;;;;;;13.65;12.55;;;;;;;2.83;78.17;94229.00;5118745;28;20203;-69
2023/01/21 06:29:50;;;;;;;14.40;13.10;;;;;;;2.78;78.31;94226.44;5118743;28;20200;-66
2023/01/21 06:32:16;;;;;;;13.00;11.80;;;;;;;2.85;79.20;94239.56;5119456;28;20208;-66
2023/01/21 06:34:43;;;;;;;11.82;10.73;;;;;;;2.91;79.54;94235.53;5119452;28;20191;-68
2023/01/21 06:37:10;;;;;;;12.13;11.00;;;;;;;2.91;78.58;94251.09;5119027;28;20180;-68
2023/01/21 06:39:37;;;;;;;13.05;11.82;;;;;;;2.91;78.53;94249.16;5117849;28;20214;-68
2023/01/21 06:42:04;;;;;;;14.40;13.00;;;;;;;2.91;78.21;94242.91;5117889;28;20282;-68
2023/01/21 06:44:32;;;;;;;16.42;14.73;;;;;;;2.96;78.26;94240.81;5118878;28;20195;-68
2023/01/21 06:46:59;;;;;;;16.15;14.57;;;;;;;2.97;77.96;94257.94;5117990;28;20222;-68
2023/01/21 06:49:26;;;;;;;13.40;12.00;;;;;;;2.97;78.89;94257.94;5118277;28;20196;-68
2023/01/21 06:51:52;;;;;;;14.05;12.65;;;;;;;3.01;78.45;94256.16;5117896;28;20219;-68
2023/01/21 06:54:19;;;;;;;15.27;13.40;;;;;;;3.03;78.52;94251.22;5117812;28;20191;-68
2023/01/21 06:56:46;;;;;;;13.68;12.27;;;;;;;3.03;78.52;94262.91;5117076;28;20671;-68
2023/01/21 06:59:13;;;;;;;14.02;12.63;;;;;;;3.04;78.46;94271.88;5118248;28;20194;-68
2023/01/21 07:01:41;;;;;;;14.18;12.68;;;;;;;3.04;78.74;94286.28;5117639;28;20206;-68
2023/01/21 07:04:08;;;;;;;14.18;12.77;;;;;;;3.08;77.82;94278.25;5118047;28;20195;-68
2023/01/21 07:06:34;;;;;;;13.98;12.57;;;;;;;3.09;78.15;94269.78;5117227;28;20207;-68
2023/01/21 07:09:02;;;;;;;15.82;14.18;;;;;;;3.11;78.21;94258.56;5118379;28;20184;-68
2023/01/21 07:11:29;;;;;;;16.77;14.98;;;;;;;3.15;78.43;94262.22;5117435;28;20223;-68
2023/01/21 07:13:56;;;;;;;14.40;12.85;;;;;;;3.18;78.32;94263.50;5117183;28;20192;-68
2023/01/21 07:16:22;;;;;;;15.30;13.80;;;;;;;3.15;78.40;94262.22;5118044;28;20192;-68
2023/01/21 07:18:51;;;;;;;18.35;16.55;;;;;;;3.21;78.67;94271.81;5117597;28;20186;-68
2023/01/21 07:21:17;;;;;;;15.82;14.23;;;;;;;3.29;78.77;94268.25;5116931;28;20196;-68
2023/01/21 07:23:45;;;;;;;16.48;14.88;;;;;;;3.31;78.26;94273.41;5117197;28;20191;-68
2023/01/21 07:26:12;;;;;;;18.95;17.15;;;;;;;3.38;78.64;94276.44;5116877;28;20682;-68
2023/01/21 07:28:39;;;;;;;19.23;17.23;;;;;;;3.44;78.94;94269.66;5116873;28;20535;-68
2023/01/21 07:31:05;;;;;;;20.13;17.92;;;;;;;3.57;78.76;94259.66;5117184;28;20195;-68
2023/01/21 07:33:32;;;;;;;19.23;17.23;;;;;;;3.65;78.67;94250.63;5117128;28;20195;-68
2023/01/21 07:36:00;;;;;;;18.38;16.48;;;;;;;3.70;78.36;94247.69;5117089;28;20199;-69
2023/01/21 07:38:27;;;;;;;15.10;13.63;;;;;;;3.86;78.64;94251.47;5118123;27;20257;-68
2023/01/21 07:40:53;;;;;;;14.35;12.85;;;;;;;4.01;78.49;94241.13;5118122;28;20195;-68
2023/01/21 07:43:20;;;;;;;16.88;15.05;;;;;;;4.21;78.04;94247.69;5117195;28;20252;-68
2023/01/21 07:45:47;;;;;;;15.20;13.80;;;;;;;4.32;77.10;94248.91;5117830;28;20190;-68
2023/01/21 07:48:13;;;;;;;13.63;12.32;;;;;;;4.39;76.44;94253.84;5116615;28;20204;-68
2023/01/21 07:50:40;;;;;;;14.75;13.25;;;;;;;4.47;75.66;94247.53;5117992;28;20188;-68
2023/01/21 07:53:09;;;;;;;14.80;13.40;;;;;;;4.63;75.61;94255.91;5117040;28;20231;-68
2023/01/21 07:55:36;;;;;;;13.90;12.57;;;;;;;4.78;74.51;94238.88;5117745;28;20195;-68
2023/01/21 07:58:03;;;;;;;15.55;14.05;;;;;;;4.93;74.24;94243.69;5116949;28;20250;-68
2023/01/21 08:00:29;;;;;;;17.27;15.52;;;;;;;5.02;73.43;94238.16;5116395;28;20639;-68
2023/01/21 08:02:57;;;;;;;18.48;16.67;;;;;;;5.16;73.32;94232.38;5117373;28;20168;-69
2023/01/21 08:05:25;;;;;;;19.02;16.98;;;;;;;5.23;73.11;94227.16;5116587;28;20248;-68
2023/01/21 08:07:52;;;;;;;20.73;18.63;;;;;;;5.35;73.05;94220.91;5117380;28;20176;-68
2023/01/21 08:10:21;;;;;;;21.00;18.98;;;;;;;5.51;73.50;94240.97;5116361;28;20196;-67
2023/01/21 08:12:48;;;;;;;20.60;18.45;;;;;;;5.64;73.44;94255.47;5116243;28;20718;-67
2023/01/21 08:15:14;;;;;;;20.08;18.13;;;;;;;5.75;72.91;94268.34;5116529;28;20195;-67
2023/01/21 08:17:42;;;;;;;20.10;18.00;;;;;;;5.82;71.99;94261.50;5116330;28;20586;-68
2023/01/21 08:20:11;;;;;;;19.70;17.80;;;;;;;5.90;72.37;94252.38;5116999;28;20187;-68
2023/01/21 08:22:38;;;;;;;17.30;15.70;;;;;;;6.01;71.89;94256.28;5116808;28;20492;-68
2023/01/21 08:25:06;;;;;;;13.52;12.13;;;;;;;6.13;71.06;94269.16;5116957;28;20283;-68
2023/01/21 08:27:34;;;;;;;14.50;13.20;;;;;;;6.15;71.37;94258.66;5116085;28;20260;-67
2023/01/21 08:30:01;;;;;;;14.77;13.48;;;;;;;6.26;70.93;94254.31;5115838;28;20227;-67
2023/01/21 08:32:29;;;;;;;14.48;13.20;;;;;;;6.39;70.79;94257.81;5116007;28;20212;-66
2023/01/21 08:34:56;;;;;;;12.07;11.07;;;;;;;6.58;71.75;94266.22;5116611;28;20198;-67
2023/01/21 08:37:23;;;;;;;11.32;10.43;;;;;;;6.77;70.13;94270.28;5116759;28;20192;-67
2023/01/21 08:39:49;;;;;;;11.15;10.15;;;;;;;6.91;69.83;94268.72;5116278;28;20187;-67
2023/01/21 08:42:16;;;;;;;11.40;10.38;;;;;;;7.08;70.08;94273.13;5116509;28;20191;-67
2023/01/21 08:44:45;;;;;;;11.63;10.63;;;;;;;7.21;69.74;94266.41;5116329;28;20219;-67
2023/01/21 08:47:12;;;;;;;13.65;12.35;;;;;;;7.27;69.16;94266.16;5115435;28;20248;-67
2023/01/21 08:49:39;;;;;;;12.05;11.02;;;;;;;7.34;69.35;94280.06;5115405;28;20192;-67
2023/01/21 08:52:06;;;;;;;7.20;6.60;;;;;;;7.41;67.87;94274.78;5115019;28;20232;-67
2023/01/21 08:54:33;;;;;;;7.28;6.68;;;;;;;7.62;67.50;94274.50;5115930;28;20203;-67
2023/01/21 08:57:00;;;;;;;6.20;5.60;;;;;;;7.60;65.88;94271.34;5115034;28;20224;-67
2023/01/21 08:59:28;;;;;;;7.45;6.85;;;;;;;7.69;66.29;94272.75;5115663;28;20200;-67
2023/01/21 09:01:57;;;;;;;11.77;10.77;;;;;;;7.61;66.69;94281.94;5116263;28;20195;-67
2023/01/21 09:04:23;;;;;;;11.85;10.85;;;;;;;7.59;67.10;94280.69;5115461;28;20200;-67
2023/01/21 09:06:50;;;;;;;12.63;11.45;;;;;;;7.56;67.29;94268.50;5115503;28;20214;-67
2023/01/21 09:09:17;;;;;;;11.80;10.73;;;;;;;7.59;68.00;94267.81;5115033;28;20199;-68
2023/01/21 09:11:44;;;;;;;11.25;10.25;;;;;;;7.56;66.83;94264.97;5116175;28;20183;-67
2023/01/21 09:14:11;;;;;;;11.07;10.02;;;;;;;7.61;67.34;94260.00;5116280;28;20184;-66
2023/01/21 09:16:38;;;;;;;9.02;8.02;;;;;;;7.80;67.77;94253.78;5115359;28;20201;-67
2023/01/21 09:19:06;;;;;;;5.05;4.65;;;;;;;7.94;64.62;94245.91;5115081;28;20200;-66
2023/01/21 09:21:34;;;;;;;5.03;4.50;;;;;;;8.07;64.62;94254.84;5116198;28;20184;-66
2023/01/21 09:24:01;;;;;;;4.40;4.00;;;;;;;8.11;63.17;94252.19;5114988;28;20290;-66
2023/01/21 09:26:28;;;;;;;3.83;3.35;;;;;;;7.93;62.92;94244.31;5116108;28;20196;-66
2023/01/21 09:28:56;;;;;;;5.00;3.65;;;;;;;8.01;63.25;94244.47;5114700;28;20199;-66
2023/01/21 09:31:24;;;;;;;3.20;2.67;;;;;;;7.96;61.44;94245.56;5115028;28;20207;-69
2023/01/21 09:33:53;;;;;;;3.20;2.90;;;;;;;8.00;63.21;94231.91;5115501;28;20226;-68
2023/01/21 09:36:23;;;;;;;2.70;2.50;;;;;;;8.13;61.86;94225.97;5115616;28;20184;-67
2023/01/21 09:38:50;;;;;;;2.83;2.63;;;;;;;8.19;62.81;94223.72;5115617;28;20200;-66
2023/01/21 09:41:26;;;;;;;3.10;2.40;;;;;;;8.48;62.94;94218.88;5115785;28;20180;-67
2023/01/21 09:43:59;;;;;;;3.10;2.60;;;;;;;8.98;63.67;94220.69;5115926;28;20179;-68
2023/01/21 09:46:36;;;;;;;2.70;2.50;;;;;;;9.30;60.00;94226.03;5113918;28;20420;-70
2023/01/21 09:49:05;;;;;;;2.60;2.40;;;;;;;9.52;59.59;94225.22;5115987;28;20184;-68
2023/01/21 09:51:43;;;;;;;2.78;2.58;;;;;;;9.67;58.12;94229.03;5116323;28;20199;-69
2023/01/21 09:54:17;;;;;;;2.95;2.45;;;;;;;9.83;59.22;94226.94;5120467;28;20199;-69
2023/01/21 09:57:05;;;;;;;2.60;2.40;;;;;;;10.30;58.64;94219.41;5119186;28;20223;-69
2023/01/21 09:59:41;;;;;;;2.70;2.50;;;;;;;10.57;57.23;94209.16;5117042;28;20211;-69
2023/01/21 10:02:18;;;;;;;2.78;2.58;;;;;;;10.69;55.80;94200.66;5120116;28;20214;-65
2023/01/21 10:04:48;;;;;;;2.80;2.60;;;;;;;10.52;54.67;94198.44;5119872;28;20256;-66
2023/01/21 10:07:19;;;;;;;2.30;2.20;;;;;;;10.42;55.98;94194.41;5119792;28;20187;-65
2023/01/21 10:09:58;;;;;;;2.80;2.20;;;;;;;10.55;55.32;94190.22;5119803;28;20180;-65
2023/01/21 10:12:34;;;;;;;2.38;2.25;;;;;;;10.90;55.64;94197.38;5119575;28;20199;-65
2023/01/21 10:15:12;;;;;;;2.58;2.38;;;;;;;11.22;54.71;94188.63;5118920;28;20191;-65
2023/01/21 10:17:46;;;;;;;2.33;2.13;;;;;;;11.59;54.49;94193.38;5118766;28;20202;-65
2023/01/21 10:20:16;;;;;;;2.10;2.00;;;;;;;11.52;52.44;94194.88;5118561;28;20226;-65
2023/01/21 10:22:48;;;;;;;2.47;2.30;;;;;;;11.51;54.05;94201.59;5118903;28;20195;-65
2023/01/21 10:25:20;;;;;;;2.40;2.20;;;;;;;11.20;53.21;94202.03;5118592;28;20192;-66
2023/01/21 10:27:46;;;;;;;2.47;2.28;;;;;;;10.75;53.51;94198.38;5119068;27;20608;-65
2023/01/21 10:30:22;;;;;;;2.58;2.28;;;;;;;10.65;55.62;94197.06;5118301;28;20596;-65
2023/01/21 10:32:51;;;;;;;3.15;2.38;;;;;;;11.12;55.33;94195.66;5118667;28;20544;-65
2023/01/21 10:35:19;;;;;;;2.40;2.30;;;;;;;11.43;54.11;94190.81;5118303;28;20213;-65
2023/01/21 10:37:52;;;;;;;2.95;2.65;;;;;;;11.61;54.26;94179.94;5119058;28;20195;-66
2023/01/21 10:40:41;;;;;;;2.28;2.15;;;;;;;11.62;52.51;94185.13;5118042;28;20566;-65
2023/01/21 10:43:15;;;;;;;2.50;2.30;;;;;;;11.54;53.41;94173.19;5118195;28;20294;-65
2023/01/21 10:45:45;;;;;;;2.53;2.15;;;;;;;11.63;51.64;94172.09;5117625;28;20199;-66
2023/01/21 10:48:16;;;;;;;3.90;2.20;;;;;;;12.13;52.23;94156.72;5117931;28;20206;-66
2023/01/21 10:50:48;;;;;;;2.58;2.13;;;;;;;12.52;50.02;94162.47;5118050;28;20195;-65
2023/01/21 10:53:22;;;;;;;2.95;2.40;;;;;;;12.80;49.61;94160.22;5117507;28;20216;-65
2023/01/21 10:56:09;;;;;;;2.63;2.42;;;;;;;12.99;50.15;94160.69;5118559;28;20599;-65
2023/01/21 10:58:38;;;;;;;5.82;3.70;;;;;;;12.80;48.71;94149.94;5118687;28;20245;-65
2023/01/21 11:01:08;;;;;;;4.57;3.22;;;;;;;12.31;49.69;94150.50;5117552;28;20196;-65
2023/01/21 11:03:40;;;;;;;2.75;2.55;;;;;;;11.74;50.79;94140.63;5118286;28;20585;-65
2023/01/21 11:06:09;;;;;;;5.78;3.40;;;;;;;11.69;51.36;94137.41;5118171;28;20191;-65
2023/01/21 11:08:38;;;;;;;3.50;3.20;;;;;;;11.80;52.13;94135.50;5118549;28;20249;-65
2023/01/21 11:11:07;;;;;;;3.35;2.78;;;;;;;11.69;51.88;94138.22;5118267;28;20184;-65
2023/01/21 11:13:34;;;;;;;3.95;2.88;;;;;;;11.91;52.51;94138.38;5117143;28;20214;-65
2023/01/21 11:16:03;;;;;;;2.53;2.33;;;;;;;12.34;50.61;94144.19;5117458;28;20256;-65
2023/01/21 11:18:33;;;;;;;2.65;2.40;;;;;;;12.44;50.29;94147.00;5117357;28;20199;-65
2023/01/21 11:21:03;;;;;;;2.75;2.55;;;;;;;12.12;49.82;94137.75;5118012;28;20192;-65
2023/01/21 11:23:31;;;;;;;3.75;2.70;;;;;;;12.06;51.17;94151.16;5117722;28;20184;-65
2023/01/21 11:26:04;;;;;;;4.32;3.92;;;;;;;12.21;50.72;94149.25;5118014;28;20191;-65
2023/01/21 11:28:32;;;;;;;3.08;2.83;;;;;;;12.28;51.24;94147.34;5118569;28;20176;-65
2023/01/21 11:31:08;;;;;;;3.28;2.95;;;;;;;12.75;49.72;94139.28;5117166;28;20210;-65
2023/01/21 11:33:36;;;;;;;2.72;2.53;;;;;;;11.82;50.29;94138.69;5117181;28;20247;-65
2023/01/21 11:36:11;;;;;;;2.67;2.47;;;;;;;11.37;52.23;94154.50;5117025;28;20211;-64
2023/01/21 11:38:38;;;;;;;3.47;3.08;;;;;;;11.45;53.05;94147.06;5117805;28;20191;-64
2023/01/21 11:41:15;;;;;;;2.75;2.50;;;;;;;11.63;51.93;94158.28;5117367;28;20196;-65
2023/01/21 11:43:44;;;;;;;3.20;2.28;;;;;;;11.35;52.62;94162.34;5117088;28;20264;-65